Terminal Aerodrome Forecast
Issued by NWS Wakefield, VA

Current Version | Previous Version | Text Only | Print | Product List | Glossary On
Versions: 1 2 3 4 5 6 7 8 9 10 11 12
000
FTUS41 KAKQ 211728
TAFRIC
TAF
KRIC 211728Z 2118/2218 12004KT P6SM SKC
     FM220800 VRB03KT 4SM BR SCT007
     FM221300 15005KT P6SM SCT250=

USA.gov is the U.S. government's official web portal to all federal, state and local government web resources and services.